sensor_id;sensor_type;location;lat;lon;timestamp;P1;durP1;ratioP1;P2;durP2;ratioP2
42198;SDS011;27868;45.184;5.786;2023-02-15T00:01:51;26.48;;;13.25;;
42198;SDS011;27868;45.184;5.786;2023-02-15T00:04:36;29.52;;;12.93;;
42198;SDS011;27868;45.184;5.786;2023-02-15T00:07:30;26.48;;;14.07;;
42198;SDS011;27868;45.184;5.786;2023-02-15T00:10:15;31.60;;;13.40;;
42198;SDS011;27868;45.184;5.786;2023-02-15T00:13:00;27.50;;;14.00;;
42198;SDS011;27868;45.184;5.786;2023-02-15T00:15:45;26.13;;;13.80;;
42198;SDS011;27868;45.184;5.786;2023-02-15T00:18:30;29.83;;;13.93;;
42198;SDS011;27868;45.184;5.786;2023-02-15T00:21:15;27.10;;;13.65;;
42198;SDS011;27868;45.184;5.786;2023-02-15T00:24:00;29.23;;;13.82;;
42198;SDS011;27868;45.184;5.786;2023-02-15T00:26:47;31.92;;;15.45;;
42198;SDS011;27868;45.184;5.786;2023-02-15T00:29:33;32.25;;;14.15;;
42198;SDS011;27868;45.184;5.786;2023-02-15T00:32:18;26.92;;;14.50;;
42198;SDS011;27868;45.184;5.786;2023-02-15T00:35:02;32.10;;;14.82;;
42198;SDS011;27868;45.184;5.786;2023-02-15T00:37:47;35.60;;;15.18;;
42198;SDS011;27868;45.184;5.786;2023-02-15T00:40:32;31.02;;;15.20;;
42198;SDS011;27868;45.184;5.786;2023-02-15T00:43:17;31.45;;;14.32;;
42198;SDS011;27868;45.184;5.786;2023-02-15T00:46:03;32.85;;;15.70;;
42198;SDS011;27868;45.184;5.786;2023-02-15T00:48:49;39.50;;;17.17;;
42198;SDS011;27868;45.184;5.786;2023-02-15T00:51:34;41.08;;;18.02;;
42198;SDS011;27868;45.184;5.786;2023-02-15T00:54:18;40.85;;;18.88;;
42198;SDS011;27868;45.184;5.786;2023-02-15T00:57:03;37.45;;;18.15;;
42198;SDS011;27868;45.184;5.786;2023-02-15T00:59:47;36.13;;;17.05;;
42198;SDS011;27868;45.184;5.786;2023-02-15T01:02:32;34.75;;;15.98;;
42198;SDS011;27868;45.184;5.786;2023-02-15T01:05:17;34.95;;;16.10;;
42198;SDS011;27868;45.184;5.786;2023-02-15T01:08:02;33.50;;;15.38;;
42198;SDS011;27868;45.184;5.786;2023-02-15T01:10:47;34.42;;;15.65;;
42198;SDS011;27868;45.184;5.786;2023-02-15T01:13:32;33.88;;;16.33;;
42198;SDS011;27868;45.184;5.786;2023-02-15T01:16:17;30.77;;;15.02;;
42198;SDS011;27868;45.184;5.786;2023-02-15T01:19:02;36.55;;;15.55;;
42198;SDS011;27868;45.184;5.786;2023-02-15T01:21:48;31.92;;;15.57;;
42198;SDS011;27868;45.184;5.786;2023-02-15T01:24:33;34.45;;;15.35;;
42198;SDS011;27868;45.184;5.786;2023-02-15T01:27:17;32.90;;;15.85;;
42198;SDS011;27868;45.184;5.786;2023-02-15T01:30:02;33.20;;;15.90;;
42198;SDS011;27868;45.184;5.786;2023-02-15T01:32:48;31.85;;;16.17;;
42198;SDS011;27868;45.184;5.786;2023-02-15T01:35:33;32.47;;;15.45;;
42198;SDS011;27868;45.184;5.786;2023-02-15T01:38:17;31.00;;;15.88;;
42198;SDS011;27868;45.184;5.786;2023-02-15T01:41:02;30.35;;;15.27;;
42198;SDS011;27868;45.184;5.786;2023-02-15T01:47:46;34.83;;;16.30;;
42198;SDS011;27868;45.184;5.786;2023-02-15T01:53:31;32.58;;;16.73;;
42198;SDS011;27868;45.184;5.786;2023-02-15T01:56:21;35.78;;;16.23;;
42198;SDS011;27868;45.184;5.786;2023-02-15T01:59:11;31.65;;;15.80;;
42198;SDS011;27868;45.184;5.786;2023-02-15T02:02:00;31.23;;;15.90;;
42198;SDS011;27868;45.184;5.786;2023-02-15T02:04:48;30.08;;;14.23;;
42198;SDS011;27868;45.184;5.786;2023-02-15T02:07:35;29.95;;;15.10;;
42198;SDS011;27868;45.184;5.786;2023-02-15T02:10:23;30.27;;;14.55;;
42198;SDS011;27868;45.184;5.786;2023-02-15T02:13:09;29.40;;;15.85;;
42198;SDS011;27868;45.184;5.786;2023-02-15T02:16:05;31.70;;;14.80;;
42198;SDS011;27868;45.184;5.786;2023-02-15T02:19:33;28.27;;;14.88;;
42198;SDS011;27868;45.184;5.786;2023-02-15T02:31:44;29.75;;;13.85;;
42198;SDS011;27868;45.184;5.786;2023-02-15T02:34:56;26.63;;;13.10;;
42198;SDS011;27868;45.184;5.786;2023-02-15T02:37:53;29.10;;;13.27;;
42198;SDS011;27868;45.184;5.786;2023-02-15T02:41:00;27.30;;;13.25;;
42198;SDS011;27868;45.184;5.786;2023-02-15T02:44:13;26.08;;;13.45;;
42198;SDS011;27868;45.184;5.786;2023-02-15T02:50:08;28.65;;;13.15;;
42198;SDS011;27868;45.184;5.786;2023-02-15T02:52:58;28.45;;;13.35;;
42198;SDS011;27868;45.184;5.786;2023-02-15T02:58:36;25.25;;;12.82;;
42198;SDS011;27868;45.184;5.786;2023-02-15T03:01:27;23.92;;;13.30;;
42198;SDS011;27868;45.184;5.786;2023-02-15T03:04:19;27.48;;;14.00;;
42198;SDS011;27868;45.184;5.786;2023-02-15T03:07:09;32.28;;;15.68;;
42198;SDS011;27868;45.184;5.786;2023-02-15T03:09:58;30.10;;;15.65;;
42198;SDS011;27868;45.184;5.786;2023-02-15T03:12:45;30.60;;;14.80;;
42198;SDS011;27868;45.184;5.786;2023-02-15T03:15:32;34.28;;;15.57;;
42198;SDS011;27868;45.184;5.786;2023-02-15T03:18:49;31.55;;;14.60;;
42198;SDS011;27868;45.184;5.786;2023-02-15T03:21:56;27.88;;;13.93;;
42198;SDS011;27868;45.184;5.786;2023-02-15T03:24:53;30.05;;;15.45;;
42198;SDS011;27868;45.184;5.786;2023-02-15T03:27:44;30.52;;;15.00;;
42198;SDS011;27868;45.184;5.786;2023-02-15T03:30:36;32.17;;;14.93;;
42198;SDS011;27868;45.184;5.786;2023-02-15T03:33:23;28.52;;;14.18;;
42198;SDS011;27868;45.184;5.786;2023-02-15T03:36:20;31.65;;;14.68;;
42198;SDS011;27868;45.184;5.786;2023-02-15T03:45:17;29.30;;;14.52;;
42198;SDS011;27868;45.184;5.786;2023-02-15T03:48:09;30.20;;;14.43;;
42198;SDS011;27868;45.184;5.786;2023-02-15T03:50:55;36.45;;;14.30;;
42198;SDS011;27868;45.184;5.786;2023-02-15T03:57:28;27.33;;;13.80;;
42198;SDS011;27868;45.184;5.786;2023-02-15T04:00:32;24.67;;;13.63;;
42198;SDS011;27868;45.184;5.786;2023-02-15T04:03:40;27.92;;;14.57;;
42198;SDS011;27868;45.184;5.786;2023-02-15T04:06:33;27.77;;;15.18;;
42198;SDS011;27868;45.184;5.786;2023-02-15T04:09:18;32.50;;;15.38;;
42198;SDS011;27868;45.184;5.786;2023-02-15T04:12:21;30.33;;;14.60;;
42198;SDS011;27868;45.184;5.786;2023-02-15T04:15:06;32.25;;;15.00;;
42198;SDS011;27868;45.184;5.786;2023-02-15T04:18:14;29.98;;;15.35;;
42198;SDS011;27868;45.184;5.786;2023-02-15T04:20:59;32.90;;;15.63;;
42198;SDS011;27868;45.184;5.786;2023-02-15T04:24:02;31.27;;;15.57;;
42198;SDS011;27868;45.184;5.786;2023-02-15T04:27:05;29.67;;;14.80;;
42198;SDS011;27868;45.184;5.786;2023-02-15T04:29:50;32.17;;;15.40;;
42198;SDS011;27868;45.184;5.786;2023-02-15T04:32:35;32.25;;;15.43;;
42198;SDS011;27868;45.184;5.786;2023-02-15T04:35:20;31.48;;;14.25;;
42198;SDS011;27868;45.184;5.786;2023-02-15T04:38:05;28.95;;;14.63;;
42198;SDS011;27868;45.184;5.786;2023-02-15T04:40:50;35.33;;;15.32;;
42198;SDS011;27868;45.184;5.786;2023-02-15T04:43:38;30.70;;;16.08;;
42198;SDS011;27868;45.184;5.786;2023-02-15T04:46:23;33.53;;;15.02;;
42198;SDS011;27868;45.184;5.786;2023-02-15T04:49:07;31.00;;;14.85;;
42198;SDS011;27868;45.184;5.786;2023-02-15T04:51:52;29.20;;;14.80;;
42198;SDS011;27868;45.184;5.786;2023-02-15T04:54:37;29.83;;;14.98;;
42198;SDS011;27868;45.184;5.786;2023-02-15T04:57:22;29.52;;;14.05;;
42198;SDS011;27868;45.184;5.786;2023-02-15T05:00:06;36.88;;;15.05;;
42198;SDS011;27868;45.184;5.786;2023-02-15T05:02:52;33.35;;;15.75;;
42198;SDS011;27868;45.184;5.786;2023-02-15T05:05:38;32.25;;;16.58;;
42198;SDS011;27868;45.184;5.786;2023-02-15T05:08:24;36.33;;;16.80;;
42198;SDS011;27868;45.184;5.786;2023-02-15T05:11:09;33.30;;;16.40;;
42198;SDS011;27868;45.184;5.786;2023-02-15T05:13:53;37.60;;;17.50;;
42198;SDS011;27868;45.184;5.786;2023-02-15T05:16:38;37.38;;;17.42;;
42198;SDS011;27868;45.184;5.786;2023-02-15T05:19:23;32.30;;;16.80;;
42198;SDS011;27868;45.184;5.786;2023-02-15T05:22:08;40.22;;;17.90;;
42198;SDS011;27868;45.184;5.786;2023-02-15T05:24:53;36.15;;;17.63;;
42198;SDS011;27868;45.184;5.786;2023-02-15T05:27:56;38.58;;;17.48;;
42198;SDS011;27868;45.184;5.786;2023-02-15T05:33:52;39.97;;;16.85;;
42198;SDS011;27868;45.184;5.786;2023-02-15T05:36:36;37.53;;;16.33;;
42198;SDS011;27868;45.184;5.786;2023-02-15T05:39:21;35.25;;;16.40;;
42198;SDS011;27868;45.184;5.786;2023-02-15T05:42:06;38.47;;;16.92;;
42198;SDS011;27868;45.184;5.786;2023-02-15T05:44:51;42.63;;;18.25;;
42198;SDS011;27868;45.184;5.786;2023-02-15T05:47:35;37.78;;;16.83;;
42198;SDS011;27868;45.184;5.786;2023-02-15T05:50:20;38.55;;;17.88;;
42198;SDS011;27868;45.184;5.786;2023-02-15T05:53:04;36.00;;;17.58;;
42198;SDS011;27868;45.184;5.786;2023-02-15T05:55:49;37.83;;;16.92;;
42198;SDS011;27868;45.184;5.786;2023-02-15T05:58:37;34.83;;;18.17;;
42198;SDS011;27868;45.184;5.786;2023-02-15T06:01:23;40.67;;;18.33;;
42198;SDS011;27868;45.184;5.786;2023-02-15T06:04:08;34.08;;;17.55;;
42198;SDS011;27868;45.184;5.786;2023-02-15T06:06:53;33.92;;;17.05;;
42198;SDS011;27868;45.184;5.786;2023-02-15T06:09:38;33.83;;;16.67;;
42198;SDS011;27868;45.184;5.786;2023-02-15T06:12:23;34.58;;;17.10;;
42198;SDS011;27868;45.184;5.786;2023-02-15T06:15:08;37.95;;;18.15;;
42198;SDS011;27868;45.184;5.786;2023-02-15T06:17:53;38.50;;;18.88;;
42198;SDS011;27868;45.184;5.786;2023-02-15T06:20:37;41.80;;;19.50;;
42198;SDS011;27868;45.184;5.786;2023-02-15T06:23:21;44.88;;;21.58;;
42198;SDS011;27868;45.184;5.786;2023-02-15T06:26:06;41.80;;;20.73;;
42198;SDS011;27868;45.184;5.786;2023-02-15T06:28:50;44.63;;;20.92;;
42198;SDS011;27868;45.184;5.786;2023-02-15T06:31:35;41.30;;;18.67;;
42198;SDS011;27868;45.184;5.786;2023-02-15T06:34:19;38.92;;;17.83;;
42198;SDS011;27868;45.184;5.786;2023-02-15T06:37:04;41.35;;;18.70;;
42198;SDS011;27868;45.184;5.786;2023-02-15T06:39:49;37.33;;;17.10;;
42198;SDS011;27868;45.184;5.786;2023-02-15T06:42:33;37.25;;;17.52;;
42198;SDS011;27868;45.184;5.786;2023-02-15T06:45:18;37.88;;;18.17;;
42198;SDS011;27868;45.184;5.786;2023-02-15T06:48:02;35.55;;;17.98;;
42198;SDS011;27868;45.184;5.786;2023-02-15T06:50:47;39.90;;;18.35;;
42198;SDS011;27868;45.184;5.786;2023-02-15T06:53:33;36.67;;;17.77;;
42198;SDS011;27868;45.184;5.786;2023-02-15T06:56:19;36.45;;;17.98;;
42198;SDS011;27868;45.184;5.786;2023-02-15T06:59:03;37.30;;;17.02;;
42198;SDS011;27868;45.184;5.786;2023-02-15T07:01:48;37.80;;;16.73;;
42198;SDS011;27868;45.184;5.786;2023-02-15T07:04:35;34.78;;;16.15;;
42198;SDS011;27868;45.184;5.786;2023-02-15T07:07:20;38.83;;;17.75;;
42198;SDS011;27868;45.184;5.786;2023-02-15T07:10:04;36.63;;;18.23;;
42198;SDS011;27868;45.184;5.786;2023-02-15T07:12:50;44.88;;;19.50;;
42198;SDS011;27868;45.184;5.786;2023-02-15T07:15:35;38.42;;;19.27;;
42198;SDS011;27868;45.184;5.786;2023-02-15T07:18:20;44.08;;;19.52;;
42198;SDS011;27868;45.184;5.786;2023-02-15T07:21:04;44.42;;;21.38;;
42198;SDS011;27868;45.184;5.786;2023-02-15T07:23:52;51.67;;;21.90;;
42198;SDS011;27868;45.184;5.786;2023-02-15T07:26:40;48.40;;;21.08;;
42198;SDS011;27868;45.184;5.786;2023-02-15T07:29:24;47.28;;;21.15;;
42198;SDS011;27868;45.184;5.786;2023-02-15T07:32:09;42.03;;;19.55;;
42198;SDS011;27868;45.184;5.786;2023-02-15T07:34:53;45.80;;;19.73;;
42198;SDS011;27868;45.184;5.786;2023-02-15T07:37:37;47.88;;;19.75;;
42198;SDS011;27868;45.184;5.786;2023-02-15T07:40:22;41.50;;;20.00;;
42198;SDS011;27868;45.184;5.786;2023-02-15T07:43:07;44.50;;;18.98;;
42198;SDS011;27868;45.184;5.786;2023-02-15T07:45:52;43.03;;;19.35;;
42198;SDS011;27868;45.184;5.786;2023-02-15T07:48:36;40.17;;;19.05;;
42198;SDS011;27868;45.184;5.786;2023-02-15T07:51:24;31.33;;;16.80;;
42198;SDS011;27868;45.184;5.786;2023-02-15T07:54:08;42.60;;;18.33;;
42198;SDS011;27868;45.184;5.786;2023-02-15T07:56:53;40.35;;;18.27;;
42198;SDS011;27868;45.184;5.786;2023-02-15T07:59:37;36.30;;;17.45;;
42198;SDS011;27868;45.184;5.786;2023-02-15T08:02:21;43.38;;;18.33;;
42198;SDS011;27868;45.184;5.786;2023-02-15T08:05:06;36.22;;;17.75;;
42198;SDS011;27868;45.184;5.786;2023-02-15T08:07:51;39.75;;;18.50;;
42198;SDS011;27868;45.184;5.786;2023-02-15T08:10:36;38.55;;;17.50;;
42198;SDS011;27868;45.184;5.786;2023-02-15T08:13:39;36.72;;;17.65;;
42198;SDS011;27868;45.184;5.786;2023-02-15T08:16:50;41.50;;;18.73;;
42198;SDS011;27868;45.184;5.786;2023-02-15T08:19:36;29.95;;;16.02;;
42198;SDS011;27868;45.184;5.786;2023-02-15T08:22:21;34.75;;;16.52;;
42198;SDS011;27868;45.184;5.786;2023-02-15T08:25:06;37.67;;;16.05;;
42198;SDS011;27868;45.184;5.786;2023-02-15T08:27:51;30.52;;;14.82;;
42198;SDS011;27868;45.184;5.786;2023-02-15T08:30:35;28.45;;;14.35;;
42198;SDS011;27868;45.184;5.786;2023-02-15T08:33:19;26.83;;;13.20;;
42198;SDS011;27868;45.184;5.786;2023-02-15T08:36:05;24.08;;;12.10;;
42198;SDS011;27868;45.184;5.786;2023-02-15T08:38:51;29.42;;;13.80;;
42198;SDS011;27868;45.184;5.786;2023-02-15T08:41:37;26.55;;;13.55;;
42198;SDS011;27868;45.184;5.786;2023-02-15T08:44:22;37.88;;;16.77;;
42198;SDS011;27868;45.184;5.786;2023-02-15T08:47:07;23.40;;;11.50;;
42198;SDS011;27868;45.184;5.786;2023-02-15T08:49:52;26.40;;;12.50;;
42198;SDS011;27868;45.184;5.786;2023-02-15T08:52:36;29.65;;;14.13;;
42198;SDS011;27868;45.184;5.786;2023-02-15T08:55:22;25.88;;;12.60;;
42198;SDS011;27868;45.184;5.786;2023-02-15T08:58:06;27.80;;;13.88;;
42198;SDS011;27868;45.184;5.786;2023-02-15T09:00:51;30.10;;;14.60;;
42198;SDS011;27868;45.184;5.786;2023-02-15T09:03:35;26.75;;;13.68;;
42198;SDS011;27868;45.184;5.786;2023-02-15T09:06:21;27.92;;;14.45;;
42198;SDS011;27868;45.184;5.786;2023-02-15T09:09:06;25.48;;;13.48;;
42198;SDS011;27868;45.184;5.786;2023-02-15T09:11:51;25.75;;;12.65;;
42198;SDS011;27868;45.184;5.786;2023-02-15T09:14:36;25.17;;;12.57;;
42198;SDS011;27868;45.184;5.786;2023-02-15T09:17:20;28.92;;;13.02;;
42198;SDS011;27868;45.184;5.786;2023-02-15T09:20:05;29.10;;;13.40;;
42198;SDS011;27868;45.184;5.786;2023-02-15T09:22:51;29.40;;;13.77;;
42198;SDS011;27868;45.184;5.786;2023-02-15T09:25:36;27.63;;;13.32;;
42198;SDS011;27868;45.184;5.786;2023-02-15T09:28:21;20.92;;;11.82;;
42198;SDS011;27868;45.184;5.786;2023-02-15T09:33:51;31.63;;;12.88;;
42198;SDS011;27868;45.184;5.786;2023-02-15T09:36:37;23.10;;;13.27;;
42198;SDS011;27868;45.184;5.786;2023-02-15T09:39:23;35.35;;;14.02;;
42198;SDS011;27868;45.184;5.786;2023-02-15T09:48:24;27.90;;;14.25;;
42198;SDS011;27868;45.184;5.786;2023-02-15T09:55:24;28.55;;;12.88;;
42198;SDS011;27868;45.184;5.786;2023-02-15T09:58:18;24.07;;;12.60;;
42198;SDS011;27868;45.184;5.786;2023-02-15T10:14:38;19.88;;;11.80;;
42198;SDS011;27868;45.184;5.786;2023-02-15T10:26:56;20.25;;;11.52;;
42198;SDS011;27868;45.184;5.786;2023-02-15T10:44:51;30.90;;;11.48;;
42198;SDS011;27868;45.184;5.786;2023-02-15T10:56:24;15.30;;;8.52;;
42198;SDS011;27868;45.184;5.786;2023-02-15T11:08:17;20.77;;;9.70;;
42198;SDS011;27868;45.184;5.786;2023-02-15T11:11:07;21.67;;;8.95;;
42198;SDS011;27868;45.184;5.786;2023-02-15T11:13:57;18.45;;;9.48;;
42198;SDS011;27868;45.184;5.786;2023-02-15T11:16:48;17.42;;;9.90;;
42198;SDS011;27868;45.184;5.786;2023-02-15T11:19:58;16.60;;;9.60;;
42198;SDS011;27868;45.184;5.786;2023-02-15T11:22:51;18.55;;;9.70;;
42198;SDS011;27868;45.184;5.786;2023-02-15T11:25:37;21.02;;;9.43;;
42198;SDS011;27868;45.184;5.786;2023-02-15T11:28:24;17.40;;;8.93;;
42198;SDS011;27868;45.184;5.786;2023-02-15T11:31:19;22.85;;;9.57;;
42198;SDS011;27868;45.184;5.786;2023-02-15T11:34:12;16.63;;;9.15;;
42198;SDS011;27868;45.184;5.786;2023-02-15T11:39:54;18.50;;;7.90;;
42198;SDS011;27868;45.184;5.786;2023-02-15T11:42:38;14.35;;;8.25;;
42198;SDS011;27868;45.184;5.786;2023-02-15T11:45:28;16.40;;;7.88;;
42198;SDS011;27868;45.184;5.786;2023-02-15T11:48:14;17.38;;;8.65;;
42198;SDS011;27868;45.184;5.786;2023-02-15T11:51:01;15.18;;;7.72;;
42198;SDS011;27868;45.184;5.786;2023-02-15T11:53:47;14.73;;;8.68;;
42198;SDS011;27868;45.184;5.786;2023-02-15T11:56:32;14.60;;;7.75;;
42198;SDS011;27868;45.184;5.786;2023-02-15T11:59:21;17.48;;;7.45;;
42198;SDS011;27868;45.184;5.786;2023-02-15T12:02:20;13.90;;;8.07;;
42198;SDS011;27868;45.184;5.786;2023-02-15T12:05:08;12.98;;;7.20;;
42198;SDS011;27868;45.184;5.786;2023-02-15T12:08:03;14.93;;;7.45;;
42198;SDS011;27868;45.184;5.786;2023-02-15T12:11:02;19.05;;;9.27;;
42198;SDS011;27868;45.184;5.786;2023-02-15T12:14:00;19.25;;;9.10;;
42198;SDS011;27868;45.184;5.786;2023-02-15T12:16:51;20.45;;;9.45;;
42198;SDS011;27868;45.184;5.786;2023-02-15T12:19:39;24.40;;;9.65;;
42198;SDS011;27868;45.184;5.786;2023-02-15T12:22:25;20.77;;;9.52;;
42198;SDS011;27868;45.184;5.786;2023-02-15T12:28:56;15.98;;;9.20;;
42198;SDS011;27868;45.184;5.786;2023-02-15T12:31:26;17.17;;;9.02;;
42198;SDS011;27868;45.184;5.786;2023-02-15T12:34:24;22.08;;;8.50;;
42198;SDS011;27868;45.184;5.786;2023-02-15T12:40:23;15.73;;;7.80;;
42198;SDS011;27868;45.184;5.786;2023-02-15T12:43:26;17.25;;;7.95;;
42198;SDS011;27868;45.184;5.786;2023-02-15T12:46:21;15.77;;;7.00;;
42198;SDS011;27868;45.184;5.786;2023-02-15T12:49:14;16.63;;;6.00;;
42198;SDS011;27868;45.184;5.786;2023-02-15T12:52:04;13.13;;;6.35;;
42198;SDS011;27868;45.184;5.786;2023-02-15T12:55:11;12.15;;;6.10;;
42198;SDS011;27868;45.184;5.786;2023-02-15T13:04:01;13.65;;;7.30;;
42198;SDS011;27868;45.184;5.786;2023-02-15T13:06:49;14.88;;;6.97;;
42198;SDS011;27868;45.184;5.786;2023-02-15T13:09:37;12.52;;;6.18;;
42198;SDS011;27868;45.184;5.786;2023-02-15T13:12:24;13.35;;;6.30;;
42198;SDS011;27868;45.184;5.786;2023-02-15T13:15:22;17.30;;;7.20;;
42198;SDS011;27868;45.184;5.786;2023-02-15T13:21:36;18.75;;;9.57;;
42198;SDS011;27868;45.184;5.786;2023-02-15T13:24:27;16.17;;;8.50;;
42198;SDS011;27868;45.184;5.786;2023-02-15T13:27:20;18.63;;;9.90;;
42198;SDS011;27868;45.184;5.786;2023-02-15T13:30:42;19.23;;;8.88;;
42198;SDS011;27868;45.184;5.786;2023-02-15T13:33:26;21.08;;;10.00;;
42198;SDS011;27868;45.184;5.786;2023-02-15T13:42:34;18.20;;;9.25;;
42198;SDS011;27868;45.184;5.786;2023-02-15T13:58:31;16.52;;;6.35;;
42198;SDS011;27868;45.184;5.786;2023-02-15T14:10:39;11.45;;;5.82;;
42198;SDS011;27868;45.184;5.786;2023-02-15T14:16:44;13.73;;;5.32;;
42198;SDS011;27868;45.184;5.786;2023-02-15T14:22:30;11.98;;;5.43;;
42198;SDS011;27868;45.184;5.786;2023-02-15T14:25:34;9.68;;;5.70;;
42198;SDS011;27868;45.184;5.786;2023-02-15T14:31:43;9.60;;;5.80;;
42198;SDS011;27868;45.184;5.786;2023-02-15T14:34:42;16.38;;;4.80;;
42198;SDS011;27868;45.184;5.786;2023-02-15T14:44:01;18.75;;;6.43;;
42198;SDS011;27868;45.184;5.786;2023-02-15T14:46:59;15.57;;;6.93;;
42198;SDS011;27868;45.184;5.786;2023-02-15T14:49:51;12.95;;;6.18;;
42198;SDS011;27868;45.184;5.786;2023-02-15T14:52:49;13.57;;;6.07;;
42198;SDS011;27868;45.184;5.786;2023-02-15T14:58:58;16.70;;;6.63;;
42198;SDS011;27868;45.184;5.786;2023-02-15T15:02:03;10.95;;;5.95;;
42198;SDS011;27868;45.184;5.786;2023-02-15T15:10:37;15.80;;;7.25;;
42198;SDS011;27868;45.184;5.786;2023-02-15T15:16:25;12.85;;;6.57;;
42198;SDS011;27868;45.184;5.786;2023-02-15T15:22:29;14.82;;;6.00;;
42198;SDS011;27868;45.184;5.786;2023-02-15T15:41:17;13.73;;;5.95;;
42198;SDS011;27868;45.184;5.786;2023-02-15T15:47:40;12.88;;;6.10;;
42198;SDS011;27868;45.184;5.786;2023-02-15T15:50:31;15.00;;;5.95;;
42198;SDS011;27868;45.184;5.786;2023-02-15T15:53:25;20.40;;;8.30;;
42198;SDS011;27868;45.184;5.786;2023-02-15T15:56:13;21.45;;;8.35;;
42198;SDS011;27868;45.184;5.786;2023-02-15T16:01:49;14.93;;;7.25;;
42198;SDS011;27868;45.184;5.786;2023-02-15T16:04:35;14.48;;;7.07;;
42198;SDS011;27868;45.184;5.786;2023-02-15T16:10:16;11.05;;;6.40;;
42198;SDS011;27868;45.184;5.786;2023-02-15T16:13:11;12.63;;;6.32;;
42198;SDS011;27868;45.184;5.786;2023-02-15T16:15:58;15.70;;;7.10;;
42198;SDS011;27868;45.184;5.786;2023-02-15T16:18:42;13.13;;;6.38;;
42198;SDS011;27868;45.184;5.786;2023-02-15T16:21:32;14.32;;;7.45;;
42198;SDS011;27868;45.184;5.786;2023-02-15T16:30:20;13.50;;;7.13;;
42198;SDS011;27868;45.184;5.786;2023-02-15T16:33:13;11.20;;;6.38;;
42198;SDS011;27868;45.184;5.786;2023-02-15T16:36:00;13.15;;;6.60;;
42198;SDS011;27868;45.184;5.786;2023-02-15T16:41:33;15.10;;;7.03;;
42198;SDS011;27868;45.184;5.786;2023-02-15T16:44:19;13.65;;;6.90;;
42198;SDS011;27868;45.184;5.786;2023-02-15T16:47:04;19.40;;;8.90;;
42198;SDS011;27868;45.184;5.786;2023-02-15T16:50:16;33.42;;;9.38;;
42198;SDS011;27868;45.184;5.786;2023-02-15T16:53:04;14.32;;;7.32;;
42198;SDS011;27868;45.184;5.786;2023-02-15T16:55:58;12.68;;;6.75;;
42198;SDS011;27868;45.184;5.786;2023-02-15T16:58:45;11.82;;;6.70;;
42198;SDS011;27868;45.184;5.786;2023-02-15T17:01:34;13.30;;;6.37;;
42198;SDS011;27868;45.184;5.786;2023-02-15T17:07:15;12.60;;;6.65;;
42198;SDS011;27868;45.184;5.786;2023-02-15T17:10:00;12.88;;;6.95;;
42198;SDS011;27868;45.184;5.786;2023-02-15T17:12:52;20.50;;;8.07;;
42198;SDS011;27868;45.184;5.786;2023-02-15T17:18:44;15.20;;;7.40;;
42198;SDS011;27868;45.184;5.786;2023-02-15T17:21:31;15.63;;;7.88;;
42198;SDS011;27868;45.184;5.786;2023-02-15T17:27:18;12.75;;;6.75;;
42198;SDS011;27868;45.184;5.786;2023-02-15T17:30:15;15.70;;;6.78;;
42198;SDS011;27868;45.184;5.786;2023-02-15T17:33:18;11.35;;;6.43;;
42198;SDS011;27868;45.184;5.786;2023-02-15T17:36:14;13.13;;;7.40;;
42198;SDS011;27868;45.184;5.786;2023-02-15T17:39:05;13.27;;;7.95;;
42198;SDS011;27868;45.184;5.786;2023-02-15T17:42:02;14.52;;;7.47;;
42198;SDS011;27868;45.184;5.786;2023-02-15T17:44:47;12.57;;;7.47;;
42198;SDS011;27868;45.184;5.786;2023-02-15T17:47:32;12.98;;;6.60;;
42198;SDS011;27868;45.184;5.786;2023-02-15T17:50:21;11.20;;;5.95;;
42198;SDS011;27868;45.184;5.786;2023-02-15T17:55:52;17.00;;;5.90;;
42198;SDS011;27868;45.184;5.786;2023-02-15T17:58:37;10.70;;;6.45;;
42198;SDS011;27868;45.184;5.786;2023-02-15T18:01:23;12.07;;;6.70;;
42198;SDS011;27868;45.184;5.786;2023-02-15T18:04:26;13.77;;;6.82;;
42198;SDS011;27868;45.184;5.786;2023-02-15T18:07:30;12.25;;;7.07;;
42198;SDS011;27868;45.184;5.786;2023-02-15T18:10:33;15.30;;;7.13;;
42198;SDS011;27868;45.184;5.786;2023-02-15T18:13:36;15.13;;;6.72;;
42198;SDS011;27868;45.184;5.786;2023-02-15T18:16:22;14.07;;;7.10;;
42198;SDS011;27868;45.184;5.786;2023-02-15T18:19:14;15.93;;;6.75;;
42198;SDS011;27868;45.184;5.786;2023-02-15T18:22:01;15.70;;;7.57;;
42198;SDS011;27868;45.184;5.786;2023-02-15T18:24:46;17.02;;;7.45;;
42198;SDS011;27868;45.184;5.786;2023-02-15T18:27:32;11.98;;;6.95;;
42198;SDS011;27868;45.184;5.786;2023-02-15T18:30:18;17.60;;;10.05;;
42198;SDS011;27868;45.184;5.786;2023-02-15T18:33:05;18.92;;;9.93;;
42198;SDS011;27868;45.184;5.786;2023-02-15T18:35:49;17.45;;;10.02;;
42198;SDS011;27868;45.184;5.786;2023-02-15T18:38:34;18.50;;;8.07;;
42198;SDS011;27868;45.184;5.786;2023-02-15T18:41:19;13.70;;;8.48;;
42198;SDS011;27868;45.184;5.786;2023-02-15T18:44:11;17.15;;;8.07;;
42198;SDS011;27868;45.184;5.786;2023-02-15T18:46:56;15.70;;;7.70;;
42198;SDS011;27868;45.184;5.786;2023-02-15T18:49:41;15.77;;;8.30;;
42198;SDS011;27868;45.184;5.786;2023-02-15T18:52:26;18.25;;;8.65;;
42198;SDS011;27868;45.184;5.786;2023-02-15T18:55:19;18.10;;;9.25;;
42198;SDS011;27868;45.184;5.786;2023-02-15T18:58:04;18.27;;;9.67;;
42198;SDS011;27868;45.184;5.786;2023-02-15T19:00:49;15.55;;;8.55;;
42198;SDS011;27868;45.184;5.786;2023-02-15T19:03:36;18.10;;;11.23;;
42198;SDS011;27868;45.184;5.786;2023-02-15T19:06:21;17.40;;;8.95;;
42198;SDS011;27868;45.184;5.786;2023-02-15T19:09:11;18.02;;;8.07;;
42198;SDS011;27868;45.184;5.786;2023-02-15T19:12:07;18.67;;;8.82;;
42198;SDS011;27868;45.184;5.786;2023-02-15T19:14:56;17.60;;;9.50;;
42198;SDS011;27868;45.184;5.786;2023-02-15T19:17:41;22.48;;;10.68;;
42198;SDS011;27868;45.184;5.786;2023-02-15T19:20:31;21.23;;;12.43;;
42198;SDS011;27868;45.184;5.786;2023-02-15T19:23:20;25.52;;;13.13;;
42198;SDS011;27868;45.184;5.786;2023-02-15T19:26:06;29.33;;;12.90;;
42198;SDS011;27868;45.184;5.786;2023-02-15T19:28:53;33.28;;;13.00;;
42198;SDS011;27868;45.184;5.786;2023-02-15T19:31:37;25.38;;;13.57;;
42198;SDS011;27868;45.184;5.786;2023-02-15T19:34:22;26.45;;;14.57;;
42198;SDS011;27868;45.184;5.786;2023-02-15T19:37:07;24.27;;;13.88;;
42198;SDS011;27868;45.184;5.786;2023-02-15T19:40:19;27.10;;;14.35;;
42198;SDS011;27868;45.184;5.786;2023-02-15T19:43:14;26.83;;;14.15;;
42198;SDS011;27868;45.184;5.786;2023-02-15T19:46:01;33.78;;;14.70;;
42198;SDS011;27868;45.184;5.786;2023-02-15T19:48:46;27.85;;;14.93;;
42198;SDS011;27868;45.184;5.786;2023-02-15T19:51:31;29.88;;;16.83;;
42198;SDS011;27868;45.184;5.786;2023-02-15T19:54:35;27.13;;;13.45;;
42198;SDS011;27868;45.184;5.786;2023-02-15T19:57:20;30.83;;;14.98;;
42198;SDS011;27868;45.184;5.786;2023-02-15T20:00:15;22.60;;;11.98;;
42198;SDS011;27868;45.184;5.786;2023-02-15T20:03:03;25.33;;;12.02;;
42198;SDS011;27868;45.184;5.786;2023-02-15T20:05:48;20.60;;;12.02;;
42198;SDS011;27868;45.184;5.786;2023-02-15T20:08:33;18.92;;;10.82;;
42198;SDS011;27868;45.184;5.786;2023-02-15T20:11:17;17.40;;;9.68;;
42198;SDS011;27868;45.184;5.786;2023-02-15T20:14:04;24.20;;;12.05;;
42198;SDS011;27868;45.184;5.786;2023-02-15T20:16:54;24.02;;;13.07;;
42198;SDS011;27868;45.184;5.786;2023-02-15T20:19:38;22.40;;;12.00;;
42198;SDS011;27868;45.184;5.786;2023-02-15T20:22:25;24.40;;;12.82;;